Time;durP1;ratioP1;P1;durP2;ratioP2;P2;SDS_P1;SDS_P2;PMS_P1;PMS_P2;Temp;Humidity;BMP_temperature;BMP_pressure;BME280_temperature;BME280_humidity;BME280_pressure;Samples;Min_cycle;Max_cycle;Signal;HPM_P1;HPM_P2
2022/04/04 00:01:35;;;;;;;8.73;7.95;;;;;;;;;;12292077;29;20050;-78
2022/04/04 00:07:37;;;;;;;8.95;8.23;;;;;;;;;;12298423;28;20039;-78
2022/04/04 00:13:39;;;;;;;9.43;8.63;;;;;;;;;;12303051;29;20050;-78
2022/04/04 00:19:41;;;;;;;8.65;7.95;;;;;;;;;;12302597;29;20047;-79
2022/04/04 00:25:44;;;;;;;7.20;6.60;;;;;;;;;;12302684;29;20500;-79
2022/04/04 00:31:46;;;;;;;5.75;5.30;;;;;;;;;;12301903;29;20058;-79
2022/04/04 00:37:47;;;;;;;8.55;7.85;;;;;;;;;;12301695;29;20385;-79
2022/04/04 00:43:53;;;;;;;8.00;7.40;;;;;;;;;;12302127;29;20047;-79
2022/04/04 00:49:55;;;;;;;7.65;6.95;;;;;;;;;;12301905;29;20039;-79
2022/04/04 00:55:56;;;;;;;7.35;6.78;;;;;;;;;;12296608;28;20480;-78
2022/04/04 01:01:58;;;;;;;8.55;7.57;;;;;;;;;;12301108;29;20047;-78
2022/04/04 01:08:00;;;;;;;7.57;6.97;;;;;;;;;;12284752;29;20056;-78
2022/04/04 01:14:01;;;;;;;8.30;7.45;;;;;;;;;;12296551;28;20037;-78
2022/04/04 01:20:05;;;;;;;7.55;6.85;;;;;;;;;;12300841;29;20039;-78
2022/04/04 01:26:11;;;;;;;8.13;7.45;;;;;;;;;;12283380;29;20501;-77
2022/04/04 01:32:13;;;;;;;7.95;7.35;;;;;;;;;;12283471;29;20046;-78
2022/04/04 01:38:14;;;;;;;7.40;6.85;;;;;;;;;;12283662;28;20055;-77
2022/04/04 01:44:16;;;;;;;6.50;5.90;;;;;;;;;;12309648;29;20043;-78
2022/04/04 01:50:18;;;;;;;8.60;7.85;;;;;;;;;;12292481;29;20039;-78
2022/04/04 01:56:20;;;;;;;7.70;7.10;;;;;;;;;;12305895;28;20050;-78
2022/04/04 02:02:22;;;;;;;8.23;7.43;;;;;;;;;;12292126;28;20055;-79
2022/04/04 02:08:24;;;;;;;6.65;6.15;;;;;;;;;;12308849;29;20042;-78
2022/04/04 02:14:26;;;;;;;7.55;6.95;;;;;;;;;;12291526;29;20039;-79
2022/04/04 02:20:27;;;;;;;7.25;6.65;;;;;;;;;;12290877;29;20051;-79
2022/04/04 02:26:29;;;;;;;8.32;7.63;;;;;;;;;;12308004;29;20392;-79
2022/04/04 02:32:31;;;;;;;7.43;6.82;;;;;;;;;;12290154;28;20034;-79
2022/04/04 02:38:33;;;;;;;6.38;5.88;;;;;;;;;;12290335;29;20051;-79
2022/04/04 02:44:36;;;;;;;6.00;5.50;;;;;;;;;;12290355;29;20039;-79
2022/04/04 02:50:38;;;;;;;6.18;5.68;;;;;;;;;;12289409;28;20035;-80
2022/04/04 02:56:41;;;;;;;6.27;5.67;;;;;;;;;;12289621;29;20042;-79
2022/04/04 03:02:43;;;;;;;6.95;6.35;;;;;;;;;;12302250;28;20043;-79
2022/04/04 03:08:45;;;;;;;8.73;7.28;;;;;;;;;;12306151;29;20035;-79
2022/04/04 03:14:47;;;;;;;7.97;7.28;;;;;;;;;;12288704;29;20039;-80
2022/04/04 03:20:48;;;;;;;7.00;6.40;;;;;;;;;;12288348;29;20062;-79
2022/04/04 03:26:51;;;;;;;7.47;6.88;;;;;;;;;;12305464;29;20039;-79
2022/04/04 03:32:55;;;;;;;7.93;7.33;;;;;;;;;;12306744;29;20036;-80
2022/04/04 03:38:57;;;;;;;7.18;6.57;;;;;;;;;;12304867;29;20062;-79
2022/04/04 03:44:58;;;;;;;7.22;6.63;;;;;;;;;;12304849;29;20035;-80
2022/04/04 03:51:00;;;;;;;7.57;6.95;;;;;;;;;;12287051;29;20039;-80
2022/04/04 03:57:02;;;;;;;7.53;6.93;;;;;;;;;;12286623;29;20035;-79
2022/04/04 04:03:03;;;;;;;8.05;7.30;;;;;;;;;;12285313;28;20047;-80
2022/04/04 04:09:05;;;;;;;6.65;6.15;;;;;;;;;;12286098;29;20046;-80
2022/04/04 04:15:12;;;;;;;7.15;6.55;;;;;;;;;;12286034;29;20047;-80
2022/04/04 04:21:14;;;;;;;7.22;6.63;;;;;;;;;;12285926;29;20043;-79
2022/04/04 04:27:16;;;;;;;10.13;9.30;;;;;;;;;;12300349;28;20043;-80
2022/04/04 04:33:18;;;;;;;10.55;9.55;;;;;;;;;;12287516;29;20078;-80
2022/04/04 04:39:20;;;;;;;9.88;9.02;;;;;;;;;;12284774;29;20047;-80
2022/04/04 04:45:22;;;;;;;8.35;7.65;;;;;;;;;;12291935;29;20047;-79
2022/04/04 04:51:24;;;;;;;9.57;8.77;;;;;;;;;;12302319;29;20042;-79
2022/04/04 04:57:26;;;;;;;8.60;7.90;;;;;;;;;;12301513;29;20036;-79
2022/04/04 05:03:27;;;;;;;8.32;7.65;;;;;;;;;;12301309;29;20078;-79
2022/04/04 05:09:29;;;;;;;10.70;9.70;;;;;;;;;;12284300;29;20038;-79
2022/04/04 05:15:31;;;;;;;11.02;9.95;;;;;;;;;;12284396;28;20385;-79
2022/04/04 05:21:34;;;;;;;10.68;9.77;;;;;;;;;;12305143;29;20051;-79
2022/04/04 05:27:36;;;;;;;;;;;;;;;;;;12303266;29;20046;-79
2022/04/04 05:33:38;;;;;;;10.43;9.45;;;;;;;;;;12285475;29;19915;-79
2022/04/04 05:39:39;;;;;;;9.77;8.98;;;;;;;;;;12273104;28;20059;-78
2022/04/04 05:45:41;;;;;;;10.30;9.30;;;;;;;;;;12272824;29;20508;-79
2022/04/04 05:51:43;;;;;;;8.88;8.18;;;;;;;;;;12276453;29;20038;-79
2022/04/04 05:57:45;;;;;;;10.43;9.63;;;;;;;;;;12278371;28;20039;-79
2022/04/04 06:03:48;;;;;;;9.70;8.90;;;;;;;;;;12279280;28;20055;-79
2022/04/04 06:09:49;;;;;;;8.77;8.13;;;;;;;;;;12283252;28;20024;-80
2022/04/04 06:15:51;;;;;;;8.32;7.53;;;;;;;;;;12269018;28;20035;-81
2022/04/04 06:21:53;;;;;;;8.00;7.40;;;;;;;;;;12264583;29;20042;-79
2022/04/04 06:27:55;;;;;;;7.47;6.78;;;;;;;;;;12257620;29;20039;-79
2022/04/04 06:33:57;;;;;;;6.18;5.72;;;;;;;;;;12251817;28;20053;-79
2022/04/04 06:39:59;;;;;;;6.75;6.20;;;;;;;;;;12257971;28;20051;-79
2022/04/04 06:46:02;;;;;;;6.65;6.15;;;;;;;;;;12265811;28;20055;-79
2022/04/04 06:52:04;;;;;;;6.32;5.82;;;;;;;;;;12269303;28;20532;-79
2022/04/04 06:58:06;;;;;;;6.38;5.88;;;;;;;;;;12269318;28;20042;-81
2022/04/04 07:04:09;;;;;;;8.73;8.03;;;;;;;;;;12280587;28;20043;-80
2022/04/04 07:10:11;;;;;;;8.68;7.88;;;;;;;;;;12299246;28;20605;-78
2022/04/04 07:16:17;;;;;;;9.27;8.57;;;;;;;;;;12277007;28;20038;-80
2022/04/04 07:22:19;;;;;;;8.82;8.13;;;;;;;;;;12270066;28;20323;-79
2022/04/04 07:28:22;;;;;;;8.00;7.30;;;;;;;;;;12277019;28;20031;-80
2022/04/04 07:34:24;;;;;;;7.57;6.97;;;;;;;;;;12274091;28;20412;-79
2022/04/04 07:40:27;;;;;;;6.85;6.25;;;;;;;;;;12268059;28;20066;-78
2022/04/04 07:46:29;;;;;;;7.57;6.88;;;;;;;;;;12280302;28;20492;-79
2022/04/04 07:52:31;;;;;;;5.90;5.32;;;;;;;;;;12277699;28;20038;-78
2022/04/04 07:58:33;;;;;;;5.72;5.22;;;;;;;;;;12291175;28;20568;-79
2022/04/04 08:04:34;;;;;;;4.43;4.03;;;;;;;;;;12291949;28;20031;-78
2022/04/04 08:10:36;;;;;;;6.00;5.53;;;;;;;;;;12275185;29;20035;-78
2022/04/04 08:16:38;;;;;;;5.72;5.22;;;;;;;;;;12279368;28;20043;-78
2022/04/04 08:22:44;;;;;;;5.20;4.80;;;;;;;;;;12268014;28;20047;-78
2022/04/04 08:28:46;;;;;;;4.53;4.15;;;;;;;;;;12256886;28;20397;-78
2022/04/04 08:34:48;;;;;;;3.40;3.10;;;;;;;;;;12265600;29;20036;-80
2022/04/04 08:40:50;;;;;;;3.90;3.60;;;;;;;;;;12277014;29;20059;-82
2022/04/04 08:46:52;;;;;;;3.87;3.57;;;;;;;;;;12266616;28;20039;-81
2022/04/04 08:52:54;;;;;;;4.17;3.87;;;;;;;;;;12246663;29;20035;-82
2022/04/04 08:58:56;;;;;;;3.58;3.28;;;;;;;;;;12263811;28;20506;-80
2022/04/04 09:05:03;;;;;;;4.90;4.47;;;;;;;;;;12264024;28;20066;-80
2022/04/04 09:11:05;;;;;;;3.63;3.33;;;;;;;;;;12241210;28;20163;-80
2022/04/04 09:17:08;;;;;;;3.53;3.27;;;;;;;;;;12262080;28;20039;-80
2022/04/04 09:23:10;;;;;;;3.42;3.13;;;;;;;;;;12287791;28;20306;-79
2022/04/04 09:29:20;;;;;;;2.80;2.50;;;;;;;;;;12257125;29;20409;-80
2022/04/04 09:35:22;;;;;;;3.40;3.00;;;;;;;;;;12252810;29;20039;-80
2022/04/04 09:41:28;;;;;;;2.72;2.53;;;;;;;;;;12279207;28;20055;-80
2022/04/04 09:47:45;;;;;;;3.55;3.28;;;;;;;;;;12250736;29;20090;-80
2022/04/04 09:54:00;;;;;;;2.70;2.50;;;;;;;;;;12260361;29;20024;-81
2022/04/04 10:00:03;;;;;;;3.58;3.28;;;;;;;;;;12272650;29;20054;-79
2022/04/04 10:06:14;;;;;;;2.35;2.13;;;;;;;;;;12269051;28;20047;-81
2022/04/04 10:12:16;;;;;;;2.20;2.00;;;;;;;;;;12283719;28;20034;-80
2022/04/04 10:18:19;;;;;;;1.80;1.70;;;;;;;;;;12275130;28;20298;-81
2022/04/04 10:24:21;;;;;;;2.20;2.00;;;;;;;;;;12262505;28;20047;-80
2022/04/04 10:30:40;;;;;;;1.50;1.40;;;;;;;;;;12256303;28;20064;-79
2022/04/04 10:37:02;;;;;;;1.40;1.30;;;;;;;;;;12249802;28;20047;-83
2022/04/04 10:43:14;;;;;;;1.92;1.70;;;;;;;;;;12289256;28;20035;-84
2022/04/04 10:49:21;;;;;;;1.90;1.37;;;;;;;;;;12283481;28;20243;-80
2022/04/04 10:55:30;;;;;;;1.35;1.35;;;;;;;;;;12283885;28;20027;-81
2022/04/04 11:01:33;;;;;;;1.55;1.45;;;;;;;;;;12286253;28;20098;-82
2022/04/04 11:07:41;;;;;;;;;;;;;;;;;;12290813;28;20035;-80
2022/04/04 11:13:52;;;;;;;2.42;1.55;;;;;;;;;;12268192;28;19918;-76
2022/04/04 11:20:10;;;;;;;1.70;1.60;;;;;;;;;;12286327;28;20039;-76
2022/04/04 11:26:18;;;;;;;1.85;1.63;;;;;;;;;;12302777;28;20031;-76
2022/04/04 11:32:42;;;;;;;1.35;1.25;;;;;;;;;;12304474;28;20038;-76
2022/04/04 11:38:44;;;;;;;1.77;1.67;;;;;;;;;;12304509;28;20043;-76
2022/04/04 11:44:47;;;;;;;1.85;1.40;;;;;;;;;;12287626;28;20054;-76
2022/04/04 11:50:50;;;;;;;1.33;1.23;;;;;;;;;;12304452;28;20389;-78
2022/04/04 11:56:57;;;;;;;1.48;1.38;;;;;;;;;;12286488;28;20050;-75
2022/04/04 12:03:09;;;;;;;1.95;1.40;;;;;;;;;;12286047;28;20110;-75
2022/04/04 12:09:13;;;;;;;2.10;1.43;;;;;;;;;;12303306;28;20039;-75
2022/04/04 12:15:25;;;;;;;1.55;1.45;;;;;;;;;;12286144;28;20031;-76
2022/04/04 12:21:27;;;;;;;3.53;2.97;;;;;;;;;;12301609;28;20058;-76
2022/04/04 12:27:29;;;;;;;1.30;1.20;;;;;;;;;;12300773;28;20397;-76
2022/04/04 12:33:32;;;;;;;1.60;1.50;;;;;;;;;;12284157;29;20042;-76
2022/04/04 12:39:34;;;;;;;2.80;1.70;;;;;;;;;;12301843;28;20055;-76
2022/04/04 12:45:49;;;;;;;1.90;1.63;;;;;;;;;;12301318;28;20032;-77
2022/04/04 12:51:59;;;;;;;1.35;1.25;;;;;;;;;;12300976;28;20023;-76
2022/04/04 12:58:16;;;;;;;1.75;1.65;;;;;;;;;;12299235;28;20043;-76
2022/04/04 13:04:20;;;;;;;3.05;2.70;;;;;;;;;;12299173;28;20497;-75
2022/04/04 13:10:24;;;;;;;2.75;2.55;;;;;;;;;;12298430;28;20047;-77
2022/04/04 13:16:30;;;;;;;2.10;2.00;;;;;;;;;;12284164;28;20028;-77
2022/04/04 13:22:32;;;;;;;1.80;1.50;;;;;;;;;;12300733;28;20047;-77
2022/04/04 13:28:34;;;;;;;1.83;1.67;;;;;;;;;;12283912;29;20393;-77
2022/04/04 13:34:35;;;;;;;1.58;1.48;;;;;;;;;;12304006;28;20039;-78
2022/04/04 13:40:38;;;;;;;1.70;1.60;;;;;;;;;;12307638;28;20051;-77
2022/04/04 13:46:40;;;;;;;3.00;1.80;;;;;;;;;;12308952;28;20039;-78
2022/04/04 13:52:43;;;;;;;3.22;2.03;;;;;;;;;;12291760;28;20038;-78
2022/04/04 13:58:45;;;;;;;1.33;1.23;;;;;;;;;;12306783;28;20035;-77
2022/04/04 14:04:46;;;;;;;2.55;1.67;;;;;;;;;;12290926;28;20051;-78
2022/04/04 14:10:48;;;;;;;2.58;2.35;;;;;;;;;;12307835;28;20046;-77
2022/04/04 14:16:50;;;;;;;4.00;2.17;;;;;;;;;;12276217;28;20031;-78
2022/04/04 14:22:52;;;;;;;1.87;1.70;;;;;;;;;;12308308;28;20051;-78
2022/04/04 14:28:54;;;;;;;1.88;1.60;;;;;;;;;;12289191;29;20058;-80
2022/04/04 14:34:56;;;;;;;1.75;1.65;;;;;;;;;;12288364;28;20038;-77
2022/04/04 14:40:57;;;;;;;2.33;2.10;;;;;;;;;;12305623;28;20059;-76
2022/04/04 14:46:59;;;;;;;3.30;2.33;;;;;;;;;;12304071;28;20070;-76
2022/04/04 14:53:01;;;;;;;1.30;1.25;;;;;;;;;;12287268;28;20042;-76
2022/04/04 14:59:03;;;;;;;1.57;1.27;;;;;;;;;;12287217;29;20035;-76
2022/04/04 15:05:06;;;;;;;3.55;1.65;;;;;;;;;;12286747;28;20497;-76
2022/04/04 15:11:10;;;;;;;1.73;1.48;;;;;;;;;;12303577;28;20035;-76
2022/04/04 15:17:12;;;;;;;1.08;0.98;;;;;;;;;;12303409;28;20053;-76
2022/04/04 15:23:14;;;;;;;1.27;1.17;;;;;;;;;;12303055;28;20043;-77
2022/04/04 15:29:16;;;;;;;1.15;1.00;;;;;;;;;;12313703;28;20036;-77
2022/04/04 15:35:17;;;;;;;1.40;1.30;;;;;;;;;;12284945;28;20035;-76
2022/04/04 15:41:24;;;;;;;1.33;1.23;;;;;;;;;;12302635;28;20055;-76
2022/04/04 15:47:27;;;;;;;1.15;1.05;;;;;;;;;;12302045;28;20031;-76
2022/04/04 15:53:28;;;;;;;1.33;1.23;;;;;;;;;;12284830;29;20046;-77
2022/04/04 15:59:30;;;;;;;2.17;2.03;;;;;;;;;;12284888;28;20031;-77
2022/04/04 16:05:32;;;;;;;1.73;1.13;;;;;;;;;;12310319;28;20055;-77
2022/04/04 16:11:36;;;;;;;2.00;1.30;;;;;;;;;;12295066;28;20493;-76
2022/04/04 16:17:38;;;;;;;1.20;1.10;;;;;;;;;;12283987;28;20020;-76
2022/04/04 16:23:40;;;;;;;1.10;1.00;;;;;;;;;;12283208;29;20050;-76
2022/04/04 16:29:42;;;;;;;1.17;1.10;;;;;;;;;;12282661;28;20515;-76
2022/04/04 16:35:44;;;;;;;1.17;0.95;;;;;;;;;;12300762;28;20047;-76
2022/04/04 16:41:45;;;;;;;1.25;1.15;;;;;;;;;;12282534;28;20062;-75
2022/04/04 16:47:49;;;;;;;2.60;1.33;;;;;;;;;;12282311;28;20035;-76
2022/04/04 16:53:51;;;;;;;1.30;1.20;;;;;;;;;;12282809;29;20039;-76
2022/04/04 16:59:52;;;;;;;1.27;1.17;;;;;;;;;;12281526;28;20058;-76
2022/04/04 17:05:54;;;;;;;1.93;1.63;;;;;;;;;;12281901;28;20050;-78
2022/04/04 17:11:56;;;;;;;1.15;1.05;;;;;;;;;;12265286;28;20040;-77
2022/04/04 17:17:58;;;;;;;1.33;0.85;;;;;;;;;;12281469;28;20046;-77
2022/04/04 17:24:00;;;;;;;3.20;2.77;;;;;;;;;;12298990;28;20050;-76
2022/04/04 17:30:02;;;;;;;2.50;2.30;;;;;;;;;;12282954;28;20350;-76
2022/04/04 17:36:05;;;;;;;2.57;2.37;;;;;;;;;;12268022;28;20043;-76
2022/04/04 17:42:07;;;;;;;3.28;2.63;;;;;;;;;;12283023;28;20047;-76
2022/04/04 17:48:09;;;;;;;3.88;2.55;;;;;;;;;;12283189;28;20054;-76
2022/04/04 17:54:16;;;;;;;4.53;4.13;;;;;;;;;;12299515;28;20048;-76
2022/04/04 18:00:17;;;;;;;4.15;3.22;;;;;;;;;;12282695;28;20047;-77
2022/04/04 18:06:19;;;;;;;3.15;2.95;;;;;;;;;;12267004;28;20066;-76
2022/04/04 18:12:23;;;;;;;5.38;4.38;;;;;;;;;;12299921;28;20035;-76
2022/04/04 18:18:24;;;;;;;4.00;3.60;;;;;;;;;;12282146;29;20035;-79
2022/04/04 18:24:26;;;;;;;5.20;3.03;;;;;;;;;;12305605;28;20050;-76
2022/04/04 18:30:28;;;;;;;3.75;3.45;;;;;;;;;;12308149;28;20043;-79
2022/04/04 18:36:30;;;;;;;3.90;3.50;;;;;;;;;;12290478;28;20512;-77
2022/04/04 18:42:32;;;;;;;3.50;3.20;;;;;;;;;;12285642;28;20588;-78
2022/04/04 18:48:34;;;;;;;4.00;3.47;;;;;;;;;;12289942;29;20031;-83
2022/04/04 18:54:36;;;;;;;4.38;3.97;;;;;;;;;;12306401;28;20035;-81
2022/04/04 19:00:38;;;;;;;4.90;4.40;;;;;;;;;;12289290;28;20378;-82
2022/04/04 19:06:40;;;;;;;4.95;4.45;;;;;;;;;;12289406;28;20090;-81
2022/04/04 19:12:42;;;;;;;5.70;5.13;;;;;;;;;;12288969;28;20058;-79
2022/04/04 19:18:44;;;;;;;5.13;4.72;;;;;;;;;;12288333;29;20042;-78
2022/04/04 19:24:46;;;;;;;4.45;4.05;;;;;;;;;;12305286;28;20043;-80
2022/04/04 19:30:48;;;;;;;4.38;3.70;;;;;;;;;;12299823;28;20058;-80
2022/04/04 19:36:51;;;;;;;3.80;3.50;;;;;;;;;;12305209;28;20383;-78
2022/04/04 19:42:53;;;;;;;3.92;3.63;;;;;;;;;;12287598;28;20062;-77
2022/04/04 19:48:55;;;;;;;3.75;3.45;;;;;;;;;;12271303;29;20374;-80
2022/04/04 19:54:57;;;;;;;3.10;2.83;;;;;;;;;;12287127;28;20043;-80
2022/04/04 20:00:59;;;;;;;3.35;3.05;;;;;;;;;;12317763;28;20496;-80
2022/04/04 20:07:04;;;;;;;4.05;3.72;;;;;;;;;;12304555;28;20055;-82
2022/04/04 20:13:09;;;;;;;3.22;2.92;;;;;;;;;;12271063;28;20043;-79
2022/04/04 20:19:11;;;;;;;2.83;2.63;;;;;;;;;;12303266;28;20042;-79
2022/04/04 20:25:13;;;;;;;3.25;3.00;;;;;;;;;;12285555;28;20050;-78
2022/04/04 20:31:18;;;;;;;3.00;2.80;;;;;;;;;;12302820;28;20046;-77
2022/04/04 20:37:20;;;;;;;3.58;3.28;;;;;;;;;;12284017;28;20066;-77
2022/04/04 20:43:24;;;;;;;3.20;3.00;;;;;;;;;;12270376;28;20051;-78
2022/04/04 20:49:26;;;;;;;3.25;3.05;;;;;;;;;;12285374;28;20036;-77
2022/04/04 20:55:28;;;;;;;3.33;3.08;;;;;;;;;;12285170;28;20508;-77
2022/04/04 21:01:30;;;;;;;3.15;2.92;;;;;;;;;;12284562;28;20058;-77
2022/04/04 21:07:32;;;;;;;3.55;3.25;;;;;;;;;;12285121;28;20042;-76
2022/04/04 21:13:34;;;;;;;3.92;3.60;;;;;;;;;;12268535;29;20035;-76
2022/04/04 21:19:35;;;;;;;4.70;4.35;;;;;;;;;;12283823;28;20031;-76
2022/04/04 21:25:37;;;;;;;3.92;3.63;;;;;;;;;;12300866;28;20047;-76
2022/04/04 21:31:39;;;;;;;5.05;4.65;;;;;;;;;;12284146;28;20039;-76
2022/04/04 21:37:42;;;;;;;4.45;4.15;;;;;;;;;;12283334;28;20090;-76
2022/04/04 21:43:44;;;;;;;4.35;4.05;;;;;;;;;;12312743;28;20055;-76
2022/04/04 21:49:46;;;;;;;4.55;4.15;;;;;;;;;;12300224;28;20039;-76
2022/04/04 21:55:48;;;;;;;5.13;4.72;;;;;;;;;;12285725;28;20616;-76
2022/04/04 22:01:50;;;;;;;4.50;4.15;;;;;;;;;;12292529;28;20404;-76
2022/04/04 22:07:52;;;;;;;4.03;3.65;;;;;;;;;;12292194;28;20054;-76
2022/04/04 22:13:53;;;;;;;7.03;6.33;;;;;;;;;;12321346;28;20031;-76
2022/04/04 22:19:55;;;;;;;4.43;4.03;;;;;;;;;;12308385;28;20046;-76
2022/04/04 22:25:57;;;;;;;4.57;4.18;;;;;;;;;;12291451;28;20042;-76
2022/04/04 22:31:59;;;;;;;5.53;5.13;;;;;;;;;;12290842;28;20039;-76
2022/04/04 22:38:00;;;;;;;5.68;5.28;;;;;;;;;;12309343;28;20126;-76
2022/04/04 22:44:02;;;;;;;4.85;4.55;;;;;;;;;;12307843;28;20054;-76
2022/04/04 22:50:04;;;;;;;6.72;6.13;;;;;;;;;;12307622;28;20045;-77
2022/04/04 22:56:06;;;;;;;5.37;4.97;;;;;;;;;;12307158;28;20035;-77
2022/04/04 23:02:07;;;;;;;6.28;5.78;;;;;;;;;;12306259;28;20047;-77
2022/04/04 23:08:09;;;;;;;5.53;5.13;;;;;;;;;;12302554;28;20035;-77
2022/04/04 23:14:11;;;;;;;4.68;4.38;;;;;;;;;;12289613;29;20508;-77
2022/04/04 23:20:13;;;;;;;4.88;4.57;;;;;;;;;;12306177;28;20058;-77
2022/04/04 23:26:14;;;;;;;5.10;4.70;;;;;;;;;;12288561;28;20054;-77
2022/04/04 23:32:16;;;;;;;4.75;4.35;;;;;;;;;;12289088;28;20031;-77
2022/04/04 23:38:18;;;;;;;5.47;5.07;;;;;;;;;;12305812;28;20059;-77
2022/04/04 23:44:20;;;;;;;5.43;5.03;;;;;;;;;;12271856;28;20043;-77
2022/04/04 23:50:25;;;;;;;5.47;5.07;;;;;;;;;;12305151;28;20532;-77
2022/04/04 23:56:26;;;;;;;5.22;4.82;;;;;;;;;;12271674;28;20038;-77
